Time;durP1;ratioP1;P1;durP2;ratioP2;P2;SDS_P1;SDS_P2;PMS_P1;PMS_P2;Temp;Humidity;BMP_temperature;BMP_pressure;BME280_temperature;BME280_humidity;BME280_pressure;Samples;Min_cycle;Max_cycle;Signal;HPM_P1;HPM_P2
2022/03/26 00:03:11;;;;;;;20.25;9.90;;;;;;;;;;10429001;28;20020;-72
2022/03/26 00:08:12;;;;;;;23.92;10.48;;;;;;;;;;10469009;28;20041;-70
2022/03/26 00:13:13;;;;;;;23.80;10.45;;;;;;;;;;10470176;28;20032;-70
2022/03/26 00:18:17;;;;;;;25.90;11.23;;;;;;;;;;10470595;28;20032;-74
2022/03/26 00:23:18;;;;;;;19.52;8.88;;;;;;;;;;10574014;23;20951;-73
2022/03/26 00:28:18;;;;;;;19.98;10.10;;;;;;;;;;10470120;28;20027;-71
2022/03/26 00:33:19;;;;;;;17.20;9.55;;;;;;;;;;10527131;28;20538;-69
2022/03/26 00:38:19;;;;;;;20.80;9.63;;;;;;;;;;10534254;28;20042;-72
2022/03/26 00:43:19;;;;;;;18.15;9.30;;;;;;;;;;10505396;28;20021;-70
2022/03/26 00:48:20;;;;;;;18.88;9.82;;;;;;;;;;10477904;28;20471;-70
2022/03/26 00:53:20;;;;;;;23.92;10.20;;;;;;;;;;10478244;28;20026;-71
2022/03/26 00:58:20;;;;;;;21.70;10.07;;;;;;;;;;10495101;28;20033;-74
2022/03/26 01:03:20;;;;;;;18.80;10.15;;;;;;;;;;10477530;28;20068;-74
2022/03/26 01:08:21;;;;;;;16.50;9.23;;;;;;;;;;10494875;28;20032;-70
2022/03/26 01:13:23;;;;;;;21.33;9.10;;;;;;;;;;10476764;28;20017;-77
2022/03/26 01:18:23;;;;;;;17.15;10.05;;;;;;;;;;10493334;28;20021;-70
2022/03/26 01:23:23;;;;;;;28.07;11.20;;;;;;;;;;10476135;28;20045;-71
2022/03/26 01:28:24;;;;;;;28.05;11.90;;;;;;;;;;10476361;28;20271;-68
2022/03/26 01:33:24;;;;;;;25.35;10.75;;;;;;;;;;10522302;28;20020;-76
2022/03/26 01:38:24;;;;;;;19.35;9.85;;;;;;;;;;10536070;28;20512;-69
2022/03/26 01:43:25;;;;;;;22.98;10.27;;;;;;;;;;10517495;28;20392;-70
2022/03/26 01:48:25;;;;;;;21.83;10.43;;;;;;;;;;10516081;28;20024;-78
2022/03/26 01:53:25;;;;;;;31.07;11.30;;;;;;;;;;10517024;28;20031;-71
2022/03/26 01:58:25;;;;;;;21.67;11.13;;;;;;;;;;10516660;28;20406;-71
2022/03/26 02:03:26;;;;;;;20.75;10.63;;;;;;;;;;10516379;28;20012;-74
2022/03/26 02:08:26;;;;;;;24.83;11.30;;;;;;;;;;10534512;28;20039;-69
2022/03/26 02:13:46;;;;;;;34.60;11.70;;;;;;;;;;10516306;28;20070;-71
2022/03/26 02:18:47;;;;;;;27.55;11.10;;;;;;;;;;10490605;28;20032;-71
2022/03/26 02:23:48;;;;;;;29.85;11.20;;;;;;;;;;10492121;28;20116;-71
2022/03/26 02:28:49;;;;;;;32.03;12.38;;;;;;;;;;10474060;28;20410;-73
2022/03/26 02:33:49;;;;;;;27.40;13.93;;;;;;;;;;10473514;28;20094;-70
2022/03/26 02:38:50;;;;;;;26.88;12.82;;;;;;;;;;10472971;28;20032;-70
2022/03/26 02:43:50;;;;;;;27.77;11.60;;;;;;;;;;10456890;28;20074;-70
2022/03/26 02:48:51;;;;;;;26.58;11.48;;;;;;;;;;10491107;28;20279;-69
2022/03/26 02:53:51;;;;;;;25.73;11.60;;;;;;;;;;10472753;28;20031;-74
2022/03/26 02:58:51;;;;;;;29.73;12.00;;;;;;;;;;10472542;28;20017;-70
2022/03/26 03:03:51;;;;;;;23.23;11.88;;;;;;;;;;10472374;28;20047;-70
2022/03/26 03:08:53;;;;;;;28.35;11.65;;;;;;;;;;10472101;28;20119;-73
2022/03/26 03:13:53;;;;;;;26.42;11.98;;;;;;;;;;10471982;28;20398;-70
2022/03/26 03:18:53;;;;;;;24.03;10.30;;;;;;;;;;10471706;28;20024;-74
2022/03/26 03:23:54;;;;;;;22.00;12.13;;;;;;;;;;10471648;28;20044;-69
2022/03/26 03:28:54;;;;;;;18.87;10.57;;;;;;;;;;10471370;28;20282;-70
2022/03/26 03:33:55;;;;;;;18.38;9.40;;;;;;;;;;10471378;28;20023;-70
2022/03/26 03:38:55;;;;;;;16.80;9.65;;;;;;;;;;10489343;28;20032;-69
2022/03/26 03:43:55;;;;;;;21.83;9.52;;;;;;;;;;10488607;28;20078;-72
2022/03/26 03:48:56;;;;;;;14.70;8.93;;;;;;;;;;10470946;28;20020;-70
2022/03/26 03:53:56;;;;;;;23.83;9.38;;;;;;;;;;10470945;28;20020;-70
2022/03/26 03:58:56;;;;;;;16.77;10.18;;;;;;;;;;10470817;28;20062;-72
2022/03/26 04:03:57;;;;;;;19.03;9.93;;;;;;;;;;10488552;28;20073;-71
2022/03/26 04:08:57;;;;;;;23.48;9.98;;;;;;;;;;10487097;28;20166;-69
2022/03/26 04:13:57;;;;;;;16.88;9.13;;;;;;;;;;10469734;28;20490;-70
2022/03/26 04:18:58;;;;;;;19.70;10.20;;;;;;;;;;10488617;28;20039;-71
2022/03/26 04:23:58;;;;;;;19.15;10.13;;;;;;;;;;10470219;28;20040;-70
2022/03/26 04:28:59;;;;;;;18.63;9.88;;;;;;;;;;10488270;28;20036;-67
2022/03/26 04:34:01;;;;;;;17.13;9.93;;;;;;;;;;10470006;28;20491;-75
2022/03/26 04:39:02;;;;;;;22.67;10.25;;;;;;;;;;10469839;28;20116;-72
2022/03/26 04:44:02;;;;;;;19.13;10.10;;;;;;;;;;10469735;28;20024;-71
2022/03/26 04:49:02;;;;;;;21.85;10.65;;;;;;;;;;10469792;28;20025;-71
2022/03/26 04:54:03;;;;;;;19.25;9.23;;;;;;;;;;10469382;28;20013;-72
2022/03/26 04:59:03;;;;;;;21.83;10.10;;;;;;;;;;10469467;28;20078;-73
2022/03/26 05:04:03;;;;;;;19.65;8.52;;;;;;;;;;10469184;28;20478;-71
2022/03/26 05:09:04;;;;;;;17.23;8.97;;;;;;;;;;10469204;28;20024;-70
2022/03/26 05:14:04;;;;;;;15.98;9.30;;;;;;;;;;10469683;28;20035;-70
2022/03/26 05:19:04;;;;;;;22.55;9.63;;;;;;;;;;10468767;28;20029;-71
2022/03/26 05:24:05;;;;;;;24.58;10.35;;;;;;;;;;10489396;28;20131;-70
2022/03/26 05:29:06;;;;;;;18.55;9.52;;;;;;;;;;10476372;28;20021;-71
2022/03/26 05:34:06;;;;;;;25.10;10.30;;;;;;;;;;10508812;28;20478;-70
2022/03/26 05:39:06;;;;;;;22.10;9.40;;;;;;;;;;10517251;28;20035;-73
2022/03/26 05:44:08;;;;;;;17.85;9.35;;;;;;;;;;10478468;28;20293;-70
2022/03/26 05:49:09;;;;;;;19.88;9.27;;;;;;;;;;10513446;28;20034;-70
2022/03/26 05:54:09;;;;;;;24.63;11.07;;;;;;;;;;10474981;28;20379;-70
2022/03/26 05:59:10;;;;;;;26.10;11.02;;;;;;;;;;10495695;28;20030;-76
2022/03/26 06:04:10;;;;;;;29.42;11.40;;;;;;;;;;10516362;28;20119;-71
2022/03/26 06:09:11;;;;;;;30.25;11.05;;;;;;;;;;10515708;28;20032;-70
2022/03/26 06:14:11;;;;;;;23.83;11.07;;;;;;;;;;10515979;28;20470;-73
2022/03/26 06:19:12;;;;;;;20.93;11.13;;;;;;;;;;10485877;28;20016;-72
2022/03/26 06:24:12;;;;;;;26.13;12.52;;;;;;;;;;10473086;28;20158;-72
2022/03/26 06:29:12;;;;;;;24.65;12.25;;;;;;;;;;10474057;28;20021;-70
2022/03/26 06:34:13;;;;;;;28.65;12.40;;;;;;;;;;10499835;28;20460;-73
2022/03/26 06:39:13;;;;;;;28.40;12.18;;;;;;;;;;10514803;28;20103;-77
2022/03/26 06:44:13;;;;;;;26.50;12.02;;;;;;;;;;10513907;28;20052;-71
2022/03/26 06:49:14;;;;;;;23.88;11.52;;;;;;;;;;10498000;28;20020;-74
2022/03/26 06:54:15;;;;;;;29.60;10.50;;;;;;;;;;10495943;28;20016;-72
2022/03/26 06:59:15;;;;;;;25.10;11.48;;;;;;;;;;10509201;28;20145;-73
2022/03/26 07:04:15;;;;;;;18.40;10.63;;;;;;;;;;10505800;28;20072;-74
2022/03/26 07:09:16;;;;;;;26.03;10.83;;;;;;;;;;10506080;28;20434;-75
2022/03/26 07:14:16;;;;;;;20.97;9.47;;;;;;;;;;10506739;28;20016;-74
2022/03/26 07:19:16;;;;;;;22.13;9.90;;;;;;;;;;10526095;28;20016;-77
2022/03/26 07:24:17;;;;;;;31.95;11.65;;;;;;;;;;10525720;28;20044;-76
2022/03/26 07:29:17;;;;;;;25.42;12.35;;;;;;;;;;10508282;28;20501;-73
2022/03/26 07:34:17;;;;;;;23.83;10.20;;;;;;;;;;10507808;28;20024;-73
2022/03/26 07:39:18;;;;;;;15.60;9.87;;;;;;;;;;10523974;28;20028;-73
2022/03/26 07:44:18;;;;;;;21.90;12.02;;;;;;;;;;10506735;28;20016;-73
2022/03/26 07:49:19;;;;;;;23.63;12.57;;;;;;;;;;10507384;28;20016;-78
2022/03/26 07:54:19;;;;;;;18.73;10.18;;;;;;;;;;10529625;28;20269;-76
2022/03/26 07:59:19;;;;;;;24.70;11.10;;;;;;;;;;10534329;28;20605;-75
2022/03/26 08:04:19;;;;;;;23.52;11.13;;;;;;;;;;10523153;28;20020;-77
2022/03/26 08:09:20;;;;;;;21.77;9.98;;;;;;;;;;10485437;28;20024;-76
2022/03/26 08:14:20;;;;;;;37.10;10.23;;;;;;;;;;10510216;28;20077;-73
2022/03/26 08:19:21;;;;;;;24.13;9.80;;;;;;;;;;10509411;28;20515;-75
2022/03/26 08:24:21;;;;;;;28.13;10.13;;;;;;;;;;10524447;28;20040;-73
2022/03/26 08:29:21;;;;;;;24.10;10.55;;;;;;;;;;10499309;28;20126;-75
2022/03/26 08:34:22;;;;;;;18.83;9.13;;;;;;;;;;10509394;28;20016;-76
2022/03/26 08:39:22;;;;;;;27.88;11.43;;;;;;;;;;10510501;28;20032;-73
2022/03/26 08:44:22;;;;;;;21.73;12.97;;;;;;;;;;10528198;28;20443;-78
2022/03/26 08:49:22;;;;;;;25.15;11.95;;;;;;;;;;10509511;28;20697;-77
2022/03/26 08:54:23;;;;;;;25.70;11.25;;;;;;;;;;10508909;28;20359;-77
2022/03/26 08:59:23;;;;;;;19.02;10.68;;;;;;;;;;10513952;28;20016;-72
2022/03/26 09:04:24;;;;;;;18.73;9.20;;;;;;;;;;10516491;28;20027;-77
2022/03/26 09:09:24;;;;;;;29.35;11.38;;;;;;;;;;10516737;28;20031;-72
2022/03/26 09:14:24;;;;;;;25.98;10.95;;;;;;;;;;10506598;28;20108;-76
2022/03/26 09:19:25;;;;;;;22.10;10.13;;;;;;;;;;10475440;28;20061;-72
2022/03/26 09:24:25;;;;;;;17.10;10.37;;;;;;;;;;10474728;28;20059;-73
2022/03/26 09:29:25;;;;;;;17.63;9.43;;;;;;;;;;10475001;28;20039;-76
2022/03/26 09:34:26;;;;;;;17.63;10.00;;;;;;;;;;10490814;28;20457;-77
2022/03/26 09:39:26;;;;;;;20.60;10.10;;;;;;;;;;10476762;28;20032;-75
2022/03/26 09:44:27;;;;;;;20.00;10.73;;;;;;;;;;10515185;28;20038;-78
2022/03/26 09:49:27;;;;;;;23.38;10.38;;;;;;;;;;10514888;28;20119;-72
2022/03/26 09:54:28;;;;;;;16.80;10.05;;;;;;;;;;10508368;28;20043;-76
2022/03/26 09:59:28;;;;;;;21.75;10.07;;;;;;;;;;10472850;28;20032;-72
2022/03/26 10:04:38;;;;;;;16.27;10.00;;;;;;;;;;10505404;28;20024;-73
2022/03/26 10:09:39;;;;;;;20.15;8.95;;;;;;;;;;10533895;28;20032;-74
2022/03/26 10:14:42;;;;;;;16.75;8.60;;;;;;;;;;10515356;28;20470;-76
2022/03/26 10:19:43;;;;;;;14.00;8.35;;;;;;;;;;10490605;28;20029;-73
2022/03/26 10:24:44;;;;;;;18.08;8.93;;;;;;;;;;10491134;28;20044;-75
2022/03/26 10:29:49;;;;;;;15.98;8.80;;;;;;;;;;10519516;28;20039;-77
2022/03/26 10:34:50;;;;;;;14.70;7.65;;;;;;;;;;10513622;28;20031;-74
2022/03/26 10:39:51;;;;;;;18.60;7.07;;;;;;;;;;10532276;28;20035;-73
2022/03/26 10:44:51;;;;;;;14.27;7.45;;;;;;;;;;10512507;28;20024;-76
2022/03/26 10:49:56;;;;;;;20.05;7.53;;;;;;;;;;10512748;28;20127;-75
2022/03/26 10:54:56;;;;;;;21.73;7.15;;;;;;;;;;10528277;28;20397;-73
2022/03/26 10:59:57;;;;;;;12.37;6.53;;;;;;;;;;10513086;28;20028;-72
2022/03/26 11:04:58;;;;;;;11.43;6.80;;;;;;;;;;10530790;28;20285;-77
2022/03/26 11:09:58;;;;;;;15.85;6.65;;;;;;;;;;10511650;28;20020;-76
2022/03/26 11:15:00;;;;;;;20.33;6.57;;;;;;;;;;10511713;28;20345;-73
2022/03/26 11:20:19;;;;;;;14.98;5.93;;;;;;;;;;10486064;28;20271;-72
2022/03/26 11:25:33;;;;;;;11.80;4.85;;;;;;;;;;10488373;28;20502;-71
2022/03/26 11:30:40;;;;;;;12.05;5.28;;;;;;;;;;10510568;28;20020;-77
2022/03/26 11:35:51;;;;;;;14.25;5.25;;;;;;;;;;10528575;28;20119;-76
2022/03/26 11:40:55;;;;;;;9.07;5.07;;;;;;;;;;10528972;28;20024;-77
2022/03/26 11:51:25;;;;;;;15.25;5.55;;;;;;;;;;10542497;28;20029;-76
2022/03/26 11:56:28;;;;;;;13.02;5.63;;;;;;;;;;10509455;28;20098;-76
2022/03/26 12:01:38;;;;;;;14.40;6.35;;;;;;;;;;10494523;28;20020;-73
2022/03/26 12:06:44;;;;;;;11.55;5.20;;;;;;;;;;10528430;28;20017;-73
2022/03/26 12:17:07;;;;;;;8.90;4.65;;;;;;;;;;10504274;28;20023;-74
2022/03/26 12:22:27;;;;;;;9.88;4.32;;;;;;;;;;10468673;28;20021;-76
2022/03/26 12:27:28;;;;;;;6.30;4.10;;;;;;;;;;10468099;28;20540;-75
2022/03/26 12:32:29;;;;;;;7.25;4.20;;;;;;;;;;10487314;28;20021;-73
2022/03/26 12:37:29;;;;;;;11.52;5.57;;;;;;;;;;10502216;28;20019;-78
2022/03/26 12:42:30;;;;;;;9.65;5.13;;;;;;;;;;10535600;28;20678;-74
2022/03/26 12:47:31;;;;;;;10.05;4.95;;;;;;;;;;10517983;28;20215;-73
2022/03/26 12:52:31;;;;;;;9.77;4.15;;;;;;;;;;10502094;28;20020;-76
2022/03/26 13:03:05;;;;;;;8.35;4.22;;;;;;;;;;10479015;28;20069;-71
2022/03/26 13:08:15;;;;;;;9.10;3.97;;;;;;;;;;10597500;23;20458;-76
2022/03/26 13:13:15;;;;;;;11.57;4.38;;;;;;;;;;10455995;28;20021;-77
2022/03/26 13:18:20;;;;;;;8.25;4.55;;;;;;;;;;10443410;28;20478;-75
2022/03/26 13:23:26;;;;;;;9.93;4.85;;;;;;;;;;10462052;28;20028;-77
2022/03/26 13:28:36;;;;;;;6.38;3.67;;;;;;;;;;10474513;28;20478;-76
2022/03/26 13:33:36;;;;;;;7.90;3.65;;;;;;;;;;10515750;28;20084;-79
2022/03/26 13:38:41;;;;;;;11.65;5.00;;;;;;;;;;10516240;28;20020;-78
2022/03/26 13:43:42;;;;;;;13.73;5.70;;;;;;;;;;10503842;28;20028;-73
2022/03/26 13:48:46;;;;;;;9.27;4.57;;;;;;;;;;10501053;28;20024;-78
2022/03/26 13:53:47;;;;;;;13.18;4.30;;;;;;;;;;10514267;28;20104;-77
2022/03/26 13:58:51;;;;;;;10.00;4.22;;;;;;;;;;10487227;28;20017;-74
2022/03/26 14:03:52;;;;;;;9.10;4.47;;;;;;;;;;10504715;28;20637;-74
2022/03/26 14:08:52;;;;;;;9.57;5.65;;;;;;;;;;10472921;28;20056;-76
2022/03/26 14:13:53;;;;;;;6.17;4.27;;;;;;;;;;10473787;28;20020;-74
2022/03/26 14:18:53;;;;;;;11.38;4.43;;;;;;;;;;10467221;28;20047;-73
2022/03/26 14:23:53;;;;;;;7.15;4.05;;;;;;;;;;10514695;28;20379;-77
2022/03/26 14:28:53;;;;;;;9.18;3.97;;;;;;;;;;10514478;28;20057;-72
2022/03/26 14:33:54;;;;;;;5.97;3.30;;;;;;;;;;10512865;28;20012;-75
2022/03/26 14:38:54;;;;;;;8.13;4.20;;;;;;;;;;10532015;28;20020;-77
2022/03/26 14:43:54;;;;;;;8.43;4.30;;;;;;;;;;10512627;28;20028;-74
2022/03/26 14:48:55;;;;;;;11.98;3.72;;;;;;;;;;10493468;28;20120;-74
2022/03/26 14:53:55;;;;;;;7.72;5.07;;;;;;;;;;10472328;28;20020;-75
2022/03/26 14:58:55;;;;;;;16.35;6.55;;;;;;;;;;10512658;28;20077;-75
2022/03/26 15:03:55;;;;;;;6.32;3.70;;;;;;;;;;10512880;28;20124;-72
2022/03/26 15:08:56;;;;;;;8.75;4.95;;;;;;;;;;10520367;28;20396;-77
2022/03/26 15:13:56;;;;;;;8.70;4.22;;;;;;;;;;10487579;28;20020;-76
2022/03/26 15:18:57;;;;;;;10.77;4.65;;;;;;;;;;10486760;28;20036;-73
2022/03/26 15:23:57;;;;;;;11.63;4.38;;;;;;;;;;10486410;28;20487;-71
2022/03/26 15:28:57;;;;;;;9.40;4.60;;;;;;;;;;10510692;28;20474;-76
2022/03/26 15:33:58;;;;;;;12.27;4.13;;;;;;;;;;10488713;28;20492;-73
2022/03/26 15:38:58;;;;;;;9.43;4.90;;;;;;;;;;10486990;28;20051;-71
2022/03/26 15:43:58;;;;;;;7.90;3.70;;;;;;;;;;10487929;28;20393;-74
2022/03/26 15:48:59;;;;;;;15.67;4.27;;;;;;;;;;10488036;28;20028;-76
2022/03/26 15:53:59;;;;;;;11.05;4.80;;;;;;;;;;10510308;28;20032;-73
2022/03/26 15:58:59;;;;;;;12.73;5.30;;;;;;;;;;10510433;28;20035;-73
2022/03/26 16:03:59;;;;;;;11.77;4.32;;;;;;;;;;10510804;28;20035;-72
2022/03/26 16:09:00;;;;;;;7.30;4.13;;;;;;;;;;10507939;28;20040;-71
2022/03/26 16:14:00;;;;;;;6.83;3.83;;;;;;;;;;10529107;28;20027;-72
2022/03/26 16:19:05;;;;;;;9.38;3.90;;;;;;;;;;10510752;28;20353;-74
2022/03/26 16:24:07;;;;;;;12.68;4.53;;;;;;;;;;10534789;28;20047;-74
2022/03/26 16:29:07;;;;;;;15.75;4.85;;;;;;;;;;10487869;28;20099;-75
2022/03/26 16:34:08;;;;;;;16.15;4.00;;;;;;;;;;10510363;28;20016;-71
2022/03/26 16:39:08;;;;;;;9.88;4.70;;;;;;;;;;10527697;28;20432;-72
2022/03/26 16:44:09;;;;;;;20.55;6.15;;;;;;;;;;10504590;28;20402;-72
2022/03/26 16:49:09;;;;;;;15.00;5.30;;;;;;;;;;10506888;28;20031;-73
2022/03/26 16:54:09;;;;;;;20.52;7.20;;;;;;;;;;10483070;28;20531;-70
2022/03/26 16:59:10;;;;;;;10.45;5.28;;;;;;;;;;10488507;28;20460;-72
2022/03/26 17:04:10;;;;;;;14.18;6.70;;;;;;;;;;10512421;28;20538;-71
2022/03/26 17:09:10;;;;;;;21.55;8.77;;;;;;;;;;10512203;28;20048;-70
2022/03/26 17:14:11;;;;;;;43.50;10.95;;;;;;;;;;10511984;28;20020;-70
2022/03/26 17:19:11;;;;;;;25.48;11.30;;;;;;;;;;10534699;28;20081;-72
2022/03/26 17:24:11;;;;;;;27.15;8.65;;;;;;;;;;10496658;28;20025;-71
2022/03/26 17:29:12;;;;;;;26.60;8.67;;;;;;;;;;10474139;28;20024;-74
2022/03/26 17:34:12;;;;;;;13.65;8.10;;;;;;;;;;10481780;28;20085;-71
2022/03/26 17:39:13;;;;;;;21.75;8.32;;;;;;;;;;10515735;28;20046;-69
2022/03/26 17:44:15;;;;;;;17.33;7.18;;;;;;;;;;10499471;28;20031;-70
2022/03/26 17:49:15;;;;;;;15.18;7.20;;;;;;;;;;10493673;28;20024;-72
2022/03/26 17:54:16;;;;;;;20.90;9.07;;;;;;;;;;10474039;28;20078;-71
2022/03/26 17:59:16;;;;;;;22.42;10.65;;;;;;;;;;10473663;28;20017;-75
2022/03/26 18:04:17;;;;;;;21.90;9.02;;;;;;;;;;10491965;28;20433;-72
2022/03/26 18:09:17;;;;;;;18.38;8.95;;;;;;;;;;10491528;28;20119;-73
2022/03/26 18:14:18;;;;;;;27.23;9.07;;;;;;;;;;10472791;28;20036;-73
2022/03/26 18:19:18;;;;;;;22.40;6.85;;;;;;;;;;10495552;28;20065;-70
2022/03/26 18:24:18;;;;;;;21.33;7.37;;;;;;;;;;10514725;28;20032;-71
2022/03/26 18:29:19;;;;;;;14.23;6.55;;;;;;;;;;10507770;28;20830;-73
2022/03/26 18:34:19;;;;;;;13.25;6.20;;;;;;;;;;10535119;23;20870;-71
2022/03/26 18:39:19;;;;;;;13.83;6.63;;;;;;;;;;10448748;28;20029;-71
2022/03/26 18:44:22;;;;;;;10.73;6.93;;;;;;;;;;10430916;28;20024;-73
2022/03/26 18:49:22;;;;;;;12.82;6.07;;;;;;;;;;10448304;28;20306;-72
2022/03/26 18:54:22;;;;;;;20.53;6.40;;;;;;;;;;10446519;28;20029;-72
2022/03/26 18:59:23;;;;;;;24.60;6.57;;;;;;;;;;10445423;28;20745;-72
2022/03/26 19:04:26;;;;;;;24.77;9.80;;;;;;;;;;10448019;28;20667;-72
2022/03/26 19:09:26;;;;;;;17.48;7.10;;;;;;;;;;10429819;28;20455;-72
2022/03/26 19:14:27;;;;;;;18.43;7.17;;;;;;;;;;10446872;28;20029;-71
2022/03/26 19:19:28;;;;;;;26.83;12.48;;;;;;;;;;10444214;28;20098;-73
2022/03/26 19:24:29;;;;;;;42.70;12.23;;;;;;;;;;10443267;28;20083;-70
2022/03/26 19:29:40;;;;;;;33.25;13.00;;;;;;;;;;10433341;28;20024;-72
2022/03/26 19:34:40;;;;;;;30.88;12.65;;;;;;;;;;10480336;28;20426;-72
2022/03/26 19:39:42;;;;;;;26.33;11.30;;;;;;;;;;10485208;28;20039;-72
2022/03/26 19:44:43;;;;;;;34.13;11.18;;;;;;;;;;10465861;28;20027;-72
2022/03/26 19:49:44;;;;;;;27.83;11.05;;;;;;;;;;10479481;28;20027;-71
2022/03/26 19:54:45;;;;;;;26.58;10.73;;;;;;;;;;10485063;28;20031;-73
2022/03/26 19:59:45;;;;;;;21.13;8.50;;;;;;;;;;10466330;28;20041;-71
2022/03/26 20:04:46;;;;;;;18.75;9.23;;;;;;;;;;10485843;28;20082;-72
2022/03/26 20:09:46;;;;;;;26.13;9.50;;;;;;;;;;10469430;28;20031;-73
2022/03/26 20:14:46;;;;;;;19.70;8.27;;;;;;;;;;10468965;28;20951;-71
2022/03/26 20:19:47;;;;;;;22.13;8.93;;;;;;;;;;10468292;28;20628;-74
2022/03/26 20:24:49;;;;;;;26.05;9.27;;;;;;;;;;10467966;28;20033;-75
2022/03/26 20:29:50;;;;;;;20.08;8.35;;;;;;;;;;10468513;28;20066;-72
2022/03/26 20:34:50;;;;;;;16.92;8.10;;;;;;;;;;10468343;28;20136;-76
2022/03/26 20:39:51;;;;;;;16.40;6.88;;;;;;;;;;10468749;28;20025;-71
2022/03/26 20:44:51;;;;;;;28.80;6.63;;;;;;;;;;10466045;28;20082;-71
2022/03/26 20:49:52;;;;;;;16.83;5.68;;;;;;;;;;10467627;28;20029;-71
2022/03/26 20:54:52;;;;;;;13.20;5.72;;;;;;;;;;10491369;28;20138;-71
2022/03/26 20:59:53;;;;;;;14.10;5.25;;;;;;;;;;10475926;28;20079;-70
2022/03/26 21:04:53;;;;;;;19.25;5.55;;;;;;;;;;10476192;28;20501;-71
2022/03/26 21:09:54;;;;;;;17.98;6.65;;;;;;;;;;10474977;28;20429;-70
2022/03/26 21:14:54;;;;;;;12.52;5.88;;;;;;;;;;10475670;28;20035;-71
2022/03/26 21:19:54;;;;;;;16.77;6.35;;;;;;;;;;10493553;28;20030;-72
2022/03/26 21:30:13;;;;;;;26.63;7.40;;;;;;;;;;10494291;28;20024;-72
2022/03/26 21:35:14;;;;;;;23.48;7.47;;;;;;;;;;10493848;28;20040;-72
2022/03/26 21:40:15;;;;;;;22.10;8.00;;;;;;;;;;10476338;28;20025;-73
2022/03/26 21:45:15;;;;;;;19.77;8.30;;;;;;;;;;10475714;28;20015;-71
2022/03/26 21:50:17;;;;;;;29.23;8.90;;;;;;;;;;10475115;28;20017;-71
2022/03/26 21:55:17;;;;;;;20.25;9.55;;;;;;;;;;10475384;28;20480;-72
2022/03/26 22:00:17;;;;;;;28.80;11.07;;;;;;;;;;10475407;28;20020;-70
2022/03/26 22:05:18;;;;;;;24.53;9.40;;;;;;;;;;10474019;28;20478;-72
2022/03/26 22:10:18;;;;;;;23.30;10.68;;;;;;;;;;10474884;28;20028;-74
2022/03/26 22:15:19;;;;;;;30.50;9.57;;;;;;;;;;10474798;28;20032;-73
2022/03/26 22:20:19;;;;;;;23.50;10.13;;;;;;;;;;10474357;28;20028;-71
2022/03/26 22:25:21;;;;;;;26.00;10.15;;;;;;;;;;10492196;28;20035;-72
2022/03/26 22:30:21;;;;;;;21.88;9.57;;;;;;;;;;10457395;28;20023;-72
2022/03/26 22:35:23;;;;;;;33.13;9.50;;;;;;;;;;10473627;28;20482;-72
2022/03/26 22:40:23;;;;;;;22.33;8.73;;;;;;;;;;10473571;28;20289;-73
2022/03/26 22:45:24;;;;;;;30.07;9.97;;;;;;;;;;10473287;28;20027;-74
2022/03/26 22:50:25;;;;;;;29.05;9.38;;;;;;;;;;10473432;28;20131;-74
2022/03/26 22:55:27;;;;;;;33.65;10.90;;;;;;;;;;10489379;28;20641;-71
2022/03/26 23:00:27;;;;;;;23.92;8.52;;;;;;;;;;10472994;28;20024;-69
2022/03/26 23:05:27;;;;;;;22.05;10.18;;;;;;;;;;10473059;28;20086;-71
2022/03/26 23:10:28;;;;;;;29.73;11.52;;;;;;;;;;10490010;28;20035;-75
2022/03/26 23:15:28;;;;;;;30.60;9.50;;;;;;;;;;10472391;28;20020;-71
2022/03/26 23:20:29;;;;;;;16.40;9.13;;;;;;;;;;10455605;28;20020;-73
2022/03/26 23:25:30;;;;;;;21.25;9.77;;;;;;;;;;10471973;28;20080;-72
2022/03/26 23:30:31;;;;;;;22.93;9.10;;;;;;;;;;10471018;28;20021;-74
2022/03/26 23:35:31;;;;;;;20.38;9.07;;;;;;;;;;10471449;28;20498;-76
2022/03/26 23:40:31;;;;;;;23.33;9.53;;;;;;;;;;10471483;28;20026;-70
2022/03/26 23:45:31;;;;;;;22.75;7.80;;;;;;;;;;10487711;28;20116;-70
2022/03/26 23:50:32;;;;;;;18.83;7.35;;;;;;;;;;10471096;28;20020;-73
2022/03/26 23:55:33;;;;;;;13.83;7.40;;;;;;;;;;10489144;28;20028;-71
